aviador You're here:

KVNY Decoded Metar

VAN NUYS in CA, USA
Report Time2017-11-23 21:51:00
UTC Time2017-11-23 22:09:40
Flight Rules vfr VFR
WindCalm
Visibility9999 m
Phenomena:N/A
Clouds:N/A
Expected CloudBase > 14,000 ft AGL from Temp-Dew spread
CeilingNone
Temp34°C (ISA +21)
Dew Point-1°C (11% RH)
Heat Index31.5°C
AAT31.9°C
QNH1014 hPa
Density Alt3,192 ft
Elevation804 ft
Report Wrong Elevation
Raw Report
METAR KVNY 232151Z 00000KT 10SM CLR 34/M01 A2993 RMK AO2 SLP126 T03441006=

Extra information for KVNY:More info

Metar Taf Metar & Taf Last 4 Metars F.Rules Stats Wind Profile Meteogram Temp Stats Airport Information Weather charts Add Link Nearby VenuesMetar ALERT Operation Metar Decoded Social comments

AIRNAV info for KVNY